Yeoman, Indiana
Current Conditions -  °F | °C
As of 5:35 PM on Friday 24 Oct 2014 (Local Time) from KMCX Reporting Station
Scattered Clouds Scattered Clouds  
Wind Chill: 64°   Ceiling: Unl
Heat Index: 64°   Visibility: 7mi
Dew Point: 52°   Wind: 9mph
Humidity: 64%   Direction: 250°WSW
Pressure: 29.99"   Gusts: NA
Location:  40.67°N, 86.72°W
Report Text: KMCX 242135Z AUTO 25008KT 7SM SCT036 18/11 A2999 RMK AO2 T01770109
Loading
Personal Weather Stations






























Interactive Weather Map
Tropical Storm Tracking
New forecast layout! Learn more

10-Day Weather Forecast

Advertisements
Track Severe Weather on mobile